Impacts TAF Board INFO
FOR SITUATIONAL AWARENESS. NOT TO BE USED FOR FLIGHT PLANNING PURPOSES.
IDs:

KLAX - Los Angeles Intl, CA, US

Issued at 1123 UTC 19 Jun 2018
Updated at 1235 UTC 19 Jun 2018
Potential Impact None Slight Moderate High
Time1153Z 19/13Z 19/14Z 19/15Z 19/16Z 19/17Z 19/18Z 19/19Z 19/20Z 19/21Z 19/22Z 19/23Z 20/00Z 20/01Z>>
Type OBS PRVL PRVL PRVL PRVL PRVL PRVL PRVL PRVL PRVL PRVL PRVL PRVL PRVL
VIS 10 >6 >6 >6 >6 >6 >6 >6 >6 >6 >6 >6 >6 >6
CIG 11 12 12 12 12 -- -- -- -- -- -- -- -- --
Cover BKN BKN BKN BKN BKN SKC SKC SKC SKC SKC SKC SKC SKC SKC
FltCat MVFR MVFR MVFR MVFR MVFR VFR VFR VFR VFR VFR VFR VFR VFR VFR
WX -- -- -- -- -- -- -- -- -- -- -- -- -- --
WDir 270 VRB VRB VRB VRB 240 240 260 260 260 260 260 260 260
WSpd 6 3 3 3 3 7 7 12 12 12 12 12 12 12
WGst -- -- -- -- -- -- -- -- -- -- -- -- -- --

Raw TAF
KLAX 191123Z 1912/2018 VRB03KT P6SM FEW007 BKN012
  FM191700 24007KT P6SM SKC
  FM191900 26012KT P6SM SKC
  FM200500 25007KT 5SM BR OVC007
  FM201700 26008KT P6SM SCT010


Raw METAR
KLAX 191153Z 27006KT 10SM FEW009 BKN011 16/13 A2997 RMK AO2 SLP145 T01610133 10172 20156 55003
KLAX 191053Z 25006KT 10SM FEW009 BKN011 16/13 A2996 RMK AO2 SLP145 T01560128
KLAX 191044Z 26006KT 10SM FEW009 BKN011 16/13 A2997 RMK AO2 T01560128
KLAX 191005Z 25007KT 10SM SCT011 16/13 A2997 RMK AO2 T01610128
KLAX 190953Z 24008KT 10SM BKN012 16/13 A2997 RMK AO2 SLP145 T01610128

METAR Board
Radar Display
Forecast Discussion

FOR SITUATIONAL AWARENESS. NOT TO BE USED FOR FLIGHT PLANNING PURPOSES.